createdAt,value
2022-09-28T00:01:14.976Z,0.70
2022-09-28T00:03:41.830Z,0.50
2022-09-28T00:06:12.294Z,0.50
2022-09-28T00:08:39.394Z,0.60
2022-09-28T00:11:08.090Z,0.50
2022-09-28T00:13:35.203Z,0.70
2022-09-28T00:16:04.590Z,0.63
2022-09-28T00:18:32.254Z,0.50
2022-09-28T00:21:04.709Z,0.50
2022-09-28T00:23:31.849Z,0.43
2022-09-28T00:26:03.435Z,0.65
2022-09-28T00:28:31.311Z,0.30
2022-09-28T00:30:58.691Z,0.50
2022-09-28T00:33:25.677Z,0.50
2022-09-28T00:35:59.066Z,0.60
2022-09-28T00:38:29.568Z,0.50
2022-09-28T00:40:56.642Z,0.60
2022-09-28T00:43:24.416Z,0.60
2022-09-28T00:46:05.652Z,0.68
2022-09-28T00:48:39.508Z,0.43
2022-09-28T00:51:11.747Z,0.40
2022-09-28T00:53:43.313Z,0.57
2022-09-28T00:56:19.052Z,0.43
2022-09-28T00:58:49.949Z,0.38
2022-09-28T01:01:16.966Z,0.52
2022-09-28T01:03:48.596Z,0.45
2022-09-28T01:06:21.389Z,0.70
2022-09-28T01:11:19.354Z,0.40
2022-09-28T01:13:48.293Z,0.35
2022-09-28T01:16:23.402Z,0.60
2022-09-28T01:19:07.917Z,0.70
2022-09-28T01:21:44.265Z,0.60
2022-09-28T01:24:44.437Z,0.60
2022-09-28T01:27:34.200Z,0.60
2022-09-28T01:30:18.851Z,0.88
2022-09-28T01:32:57.592Z,0.60
2022-09-28T01:35:27.006Z,0.60
2022-09-28T01:38:04.495Z,0.70
2022-09-28T01:40:33.625Z,1.05
2022-09-28T01:43:12.179Z,0.60
2022-09-28T01:45:42.703Z,0.60
2022-09-28T01:48:11.421Z,0.60
2022-09-28T01:50:41.881Z,0.70
2022-09-28T01:53:12.649Z,0.70
2022-09-28T01:55:45.771Z,0.95
2022-09-28T01:58:18.848Z,0.60
2022-09-28T02:03:36.727Z,0.80
2022-09-28T02:06:11.057Z,0.63
2022-09-28T02:08:42.746Z,0.85
2022-09-28T02:11:18.641Z,1.15
2022-09-28T02:14:01.153Z,0.70
2022-09-28T02:16:41.689Z,1.08
2022-09-28T02:19:26.896Z,0.95
2022-09-28T02:21:59.300Z,0.85
2022-09-28T02:24:28.800Z,0.63
2022-09-28T02:27:00.188Z,1.05
2022-09-28T02:29:31.445Z,0.73
2022-09-28T02:31:58.265Z,0.90
2022-09-28T02:34:25.887Z,1.00
2022-09-28T02:36:52.687Z,0.88
2022-09-28T02:39:19.556Z,1.27
2022-09-28T02:41:59.813Z,0.90
2022-09-28T02:44:48.219Z,1.13
2022-09-28T02:47:39.001Z,1.00
2022-09-28T02:50:06.576Z,1.00
2022-09-28T02:52:45.300Z,0.80
2022-09-28T02:55:23.964Z,0.80
2022-09-28T02:58:10.991Z,0.80
2022-09-28T03:00:52.936Z,0.80
2022-09-28T03:03:31.035Z,1.00
2022-09-28T03:06:32.560Z,0.70
2022-09-28T03:09:21.334Z,1.13
2022-09-28T03:11:58.706Z,1.10
2022-09-28T03:14:25.677Z,1.10
2022-09-28T03:16:56.120Z,1.10
2022-09-28T03:19:30.412Z,1.10
2022-09-28T03:21:57.124Z,1.20
2022-09-28T03:24:24.011Z,0.95
2022-09-28T03:26:50.760Z,0.93
2022-09-28T03:29:17.789Z,0.90
2022-09-28T03:31:47.927Z,0.93
2022-09-28T03:34:15.355Z,0.73
2022-09-28T03:36:42.944Z,2.08
2022-09-28T03:39:09.783Z,0.70
2022-09-28T03:41:38.221Z,0.90
2022-09-28T03:44:05.191Z,0.80
2022-09-28T03:46:33.089Z,1.10
2022-09-28T03:49:05.232Z,0.80
2022-09-28T03:51:32.040Z,1.00
2022-09-28T03:53:58.769Z,1.00
2022-09-28T03:56:26.069Z,1.05
2022-09-28T03:58:52.799Z,0.70
2022-09-28T04:01:20.550Z,1.17
2022-09-28T04:03:52.672Z,0.90
2022-09-28T04:06:19.395Z,0.80
2022-09-28T04:08:46.168Z,0.98
2022-09-28T04:11:13.417Z,1.08
2022-09-28T04:13:40.319Z,1.17
2022-09-28T04:16:10.937Z,0.95
2022-09-28T04:18:39.857Z,1.08
2022-09-28T04:21:25.517Z,0.77
2022-09-28T04:24:01.536Z,1.40
2022-09-28T04:26:28.460Z,1.00
2022-09-28T04:29:15.263Z,0.90
2022-09-28T04:31:52.761Z,0.77
2022-09-28T04:34:22.867Z,0.60
2022-09-28T04:36:50.468Z,0.30
2022-09-28T04:39:19.292Z,0.52
2022-09-28T04:41:52.510Z,0.30
2022-09-28T04:44:19.526Z,0.50
2022-09-28T04:46:47.611Z,0.30
2022-09-28T04:49:40.385Z,0.30
2022-09-28T04:52:11.668Z,0.63
2022-09-28T04:54:40.391Z,0.40
2022-09-28T04:57:07.177Z,0.38
2022-09-28T04:59:33.976Z,0.45
2022-09-28T05:02:00.890Z,0.30
2022-09-28T05:04:46.502Z,0.47
2022-09-28T05:07:42.742Z,0.57
2022-09-28T05:10:11.145Z,0.30
2022-09-28T05:12:39.328Z,0.40
2022-09-28T05:15:06.402Z,0.75
2022-09-28T05:17:33.251Z,0.55
2022-09-28T05:20:10.370Z,1.02
2022-09-28T05:22:37.086Z,0.60
2022-09-28T05:25:05.392Z,0.95
2022-09-28T05:27:43.448Z,0.90
2022-09-28T05:30:24.420Z,0.88
2022-09-28T05:33:14.084Z,0.73
2022-09-28T05:35:43.892Z,1.02
2022-09-28T05:38:10.589Z,1.60
2022-09-28T05:40:37.402Z,0.82
2022-09-28T05:43:04.201Z,0.68
2022-09-28T05:45:32.170Z,0.52
2022-09-28T05:47:59.159Z,0.52
2022-09-28T05:50:26.026Z,0.70
2022-09-28T05:53:01.104Z,0.45
2022-09-28T05:55:28.720Z,0.73
2022-09-28T05:57:59.459Z,0.90
2022-09-28T06:00:31.151Z,0.68
2022-09-28T06:03:08.939Z,0.55
2022-09-28T06:05:37.548Z,0.70
2022-09-28T06:08:06.070Z,0.75
2022-09-28T06:10:34.409Z,0.80
2022-09-28T06:13:01.950Z,0.68
2022-09-28T06:15:30.597Z,1.00
2022-09-28T06:18:07.221Z,0.85
2022-09-28T06:20:41.694Z,1.23
2022-09-28T06:23:19.574Z,2.22
2022-09-28T06:25:46.302Z,1.55
2022-09-28T06:28:14.458Z,0.80
2022-09-28T06:30:42.516Z,1.13
2022-09-28T06:33:14.977Z,1.80
2022-09-28T06:35:42.417Z,2.63
2022-09-28T06:38:09.709Z,1.90
2022-09-28T06:40:37.705Z,1.42
2022-09-28T06:43:14.915Z,1.67
2022-09-28T06:46:01.034Z,1.60
2022-09-28T06:48:46.496Z,1.27
2022-09-28T06:51:17.762Z,1.00
2022-09-28T06:53:56.866Z,0.70
2022-09-28T06:56:41.889Z,0.80
2022-09-28T06:59:08.623Z,1.02
2022-09-28T07:01:38.060Z,1.23
2022-09-28T07:04:18.023Z,0.90
2022-09-28T07:06:48.393Z,0.82
2022-09-28T07:09:49.396Z,0.88
2022-09-28T07:12:53.133Z,1.00
2022-09-28T07:15:28.137Z,1.00
2022-09-28T07:18:03.792Z,1.08
2022-09-28T07:20:39.531Z,1.60
2022-09-28T07:23:19.374Z,1.20
2022-09-28T07:26:08.093Z,1.42
2022-09-28T07:28:45.278Z,1.30
2022-09-28T07:31:44.398Z,1.10
2022-09-28T07:34:29.838Z,1.10
2022-09-28T07:37:01.653Z,1.30
2022-09-28T07:39:28.956Z,1.50
2022-09-28T07:41:59.833Z,0.90
2022-09-28T07:44:29.759Z,0.90
2022-09-28T07:46:57.613Z,1.10
2022-09-28T07:49:41.079Z,0.90
2022-09-28T07:52:15.018Z,1.65
2022-09-28T07:55:07.691Z,1.30
2022-09-28T07:58:01.663Z,0.93
2022-09-28T08:00:47.560Z,1.00
2022-09-28T08:03:19.153Z,1.27
2022-09-28T08:05:46.790Z,1.50
2022-09-28T08:08:14.687Z,1.00
2022-09-28T08:10:47.267Z,0.88
2022-09-28T08:13:33.133Z,1.08
2022-09-28T08:16:13.821Z,0.82
2022-09-28T08:18:49.314Z,0.90
2022-09-28T08:21:34.710Z,0.90
2022-09-28T08:24:01.558Z,0.98
2022-09-28T08:26:29.141Z,1.02
2022-09-28T08:28:56.049Z,1.10
2022-09-28T08:31:52.275Z,0.95
2022-09-28T08:34:38.798Z,1.08
2022-09-28T08:40:03.712Z,0.88
2022-09-28T08:42:55.649Z,1.58
2022-09-28T08:45:42.363Z,0.88
2022-09-28T08:49:01.132Z,0.98
2022-09-28T08:52:11.072Z,4.40
2022-09-28T08:55:26.304Z,1.00
2022-09-28T08:58:00.205Z,0.90
2022-09-28T09:00:38.616Z,1.15
2022-09-28T09:03:12.253Z,1.10
2022-09-28T09:06:00.386Z,1.23
2022-09-28T09:09:07.281Z,1.33
2022-09-28T09:11:48.812Z,1.10
2022-09-28T09:14:48.996Z,1.20
2022-09-28T09:17:34.231Z,1.83
2022-09-28T09:20:43.394Z,1.35
2022-09-28T09:23:34.827Z,1.10
2022-09-28T09:29:03.927Z,1.90
2022-09-28T09:32:04.424Z,1.48
2022-09-28T09:35:08.220Z,1.40
2022-09-28T09:38:22.022Z,1.80
2022-09-28T09:41:35.283Z,1.48
2022-09-28T09:44:32.564Z,0.95
2022-09-28T09:47:31.627Z,1.77
2022-09-28T09:50:13.142Z,1.15
2022-09-28T09:52:54.888Z,1.20
2022-09-28T09:55:32.914Z,1.27
2022-09-28T09:58:54.536Z,1.20
2022-09-28T10:01:37.289Z,1.10
2022-09-28T10:04:39.528Z,2.00
2022-09-28T10:07:22.144Z,1.80
2022-09-28T10:09:50.737Z,2.42
2022-09-28T10:12:40.650Z,1.80
2022-09-28T10:15:08.545Z,1.13
2022-09-28T10:17:47.666Z,0.95
2022-09-28T10:20:37.135Z,1.30
2022-09-28T10:23:23.043Z,1.00
2022-09-28T10:25:54.178Z,1.53
2022-09-28T10:28:38.680Z,1.60
2022-09-28T10:31:43.327Z,3.50
2022-09-28T10:34:30.884Z,1.40
2022-09-28T10:37:09.372Z,1.08
2022-09-28T10:40:02.448Z,1.15
2022-09-28T10:42:36.105Z,1.30
2022-09-28T10:45:20.771Z,1.35
2022-09-28T10:47:47.771Z,1.15
2022-09-28T10:50:27.916Z,1.42
2022-09-28T10:53:20.669Z,1.38
2022-09-28T10:56:21.357Z,1.15
2022-09-28T10:58:52.209Z,1.15
2022-09-28T11:01:32.970Z,0.90
2022-09-28T11:04:03.556Z,1.15
2022-09-28T11:06:36.067Z,3.13
2022-09-28T11:09:07.345Z,2.08
2022-09-28T11:11:41.989Z,1.50
2022-09-28T11:14:42.701Z,1.30
2022-09-28T11:17:40.511Z,1.10
2022-09-28T11:20:28.337Z,0.80
2022-09-28T11:23:00.830Z,1.00
2022-09-28T11:25:33.037Z,1.20
2022-09-28T11:28:04.383Z,0.85
2022-09-28T11:30:44.276Z,0.70
2022-09-28T11:33:45.093Z,0.77
2022-09-28T11:36:45.202Z,0.70
2022-09-28T11:39:37.016Z,0.98
2022-09-28T11:42:28.480Z,1.00
2022-09-28T11:45:22.760Z,0.70
2022-09-28T11:47:55.166Z,0.80
2022-09-28T11:50:42.570Z,0.80
2022-09-28T11:53:19.654Z,0.60
2022-09-28T11:56:08.547Z,1.08
2022-09-28T11:58:40.895Z,0.47
2022-09-28T12:01:18.867Z,0.93
2022-09-28T12:04:15.022Z,0.88
2022-09-28T12:06:51.512Z,1.10
2022-09-28T12:09:37.033Z,1.10
2022-09-28T12:12:27.965Z,0.90
2022-09-28T12:15:04.884Z,1.00
2022-09-28T12:17:42.987Z,0.80
2022-09-28T12:20:40.151Z,0.70
2022-09-28T12:23:18.847Z,0.70
2022-09-28T12:25:54.956Z,1.00
2022-09-28T12:28:36.256Z,1.27
2022-09-28T12:31:20.305Z,0.80
2022-09-28T12:33:50.873Z,0.65
2022-09-28T12:36:32.699Z,1.65
2022-09-28T12:39:18.889Z,0.63
2022-09-28T12:42:17.981Z,0.60
2022-09-28T12:44:49.116Z,1.05
2022-09-28T12:47:31.756Z,1.20
2022-09-28T12:50:41.107Z,1.02
2022-09-28T12:53:38.723Z,0.90
2022-09-28T12:56:18.092Z,0.98
2022-09-28T12:59:11.611Z,1.10
2022-09-28T13:02:00.244Z,0.95
2022-09-28T13:05:05.824Z,0.90
2022-09-28T13:07:47.495Z,0.90
2022-09-28T13:10:21.965Z,0.70
2022-09-28T13:13:12.587Z,0.80
2022-09-28T13:15:45.278Z,0.70
2022-09-28T13:18:18.501Z,0.90
2022-09-28T13:23:29.576Z,1.17
2022-09-28T13:26:21.956Z,1.00
2022-09-28T13:28:51.307Z,1.25
2022-09-28T13:31:29.181Z,1.10
2022-09-28T13:34:01.594Z,0.80
2022-09-28T13:36:28.288Z,0.95
2022-09-28T13:38:57.211Z,1.15
2022-09-28T13:41:28.959Z,1.13
2022-09-28T13:44:10.786Z,1.30
2022-09-28T13:47:04.622Z,1.08
2022-09-28T13:52:32.333Z,0.52
2022-09-28T13:55:25.273Z,0.70
2022-09-28T13:58:15.037Z,0.85
2022-09-28T14:00:53.584Z,0.73
2022-09-28T14:03:34.523Z,0.70
2022-09-28T14:06:20.965Z,1.05
2022-09-28T14:09:26.916Z,0.68
2022-09-28T14:12:04.041Z,0.90
2022-09-28T14:14:30.745Z,0.70
2022-09-28T14:17:16.395Z,0.63
2022-09-28T14:19:43.543Z,1.00
2022-09-28T14:22:26.068Z,1.00
2022-09-28T14:25:03.541Z,1.00
2022-09-28T14:27:43.996Z,0.60
2022-09-28T14:30:13.994Z,0.80
2022-09-28T14:32:48.052Z,0.50
2022-09-28T14:35:19.424Z,0.50
2022-09-28T14:38:08.656Z,0.80
2022-09-28T14:41:14.876Z,1.77
2022-09-28T14:43:44.663Z,0.70
2022-09-28T14:46:11.427Z,0.70
2022-09-28T14:48:43.461Z,1.20
2022-09-28T14:51:31.273Z,0.90
2022-09-28T14:54:04.408Z,0.80
2022-09-28T14:59:09.795Z,0.70
2022-09-28T15:01:36.884Z,0.55
2022-09-28T15:04:09.302Z,0.88
2022-09-28T15:06:46.380Z,0.80
2022-09-28T15:09:35.244Z,0.50
2022-09-28T15:12:12.140Z,0.57
2022-09-28T15:14:53.831Z,0.60
2022-09-28T15:17:24.455Z,0.70
2022-09-28T15:20:31.932Z,0.65
2022-09-28T15:22:59.998Z,0.60
2022-09-28T15:25:31.876Z,0.77
2022-09-28T15:28:13.656Z,0.60
2022-09-28T15:30:40.514Z,0.80
2022-09-28T15:33:45.697Z,0.65
2022-09-28T15:36:34.312Z,0.55
2022-09-28T15:39:04.991Z,0.60
2022-09-28T15:41:33.221Z,0.70
2022-09-28T15:44:09.323Z,0.75
2022-09-28T15:46:44.167Z,0.73
2022-09-28T15:49:26.223Z,0.63
2022-09-28T15:51:55.977Z,0.85
2022-09-28T15:54:32.019Z,1.00
2022-09-28T15:57:02.452Z,0.90
2022-09-28T15:59:32.596Z,0.57
2022-09-28T16:02:11.505Z,0.80
2022-09-28T16:04:52.963Z,0.68
2022-09-28T16:07:33.292Z,0.93
2022-09-28T16:10:03.198Z,0.80
2022-09-28T16:12:38.263Z,1.00
2022-09-28T16:15:16.255Z,1.00
2022-09-28T16:17:43.341Z,0.80
2022-09-28T16:20:34.102Z,1.02
2022-09-28T16:23:09.150Z,1.17
2022-09-28T16:25:38.995Z,1.00
2022-09-28T16:28:06.811Z,0.82
2022-09-28T16:30:34.709Z,1.30
2022-09-28T16:33:05.139Z,1.00
2022-09-28T16:35:52.718Z,1.27
2022-09-28T16:38:20.105Z,1.35
2022-09-28T16:40:59.323Z,1.15
2022-09-28T16:43:28.705Z,1.20
2022-09-28T16:46:13.273Z,0.80
2022-09-28T16:48:48.911Z,0.93
2022-09-28T16:51:17.156Z,1.00
2022-09-28T16:54:03.674Z,0.90
2022-09-28T16:56:32.452Z,0.70
2022-09-28T16:58:59.316Z,0.80
2022-09-28T17:01:26.151Z,0.82
2022-09-28T17:03:52.882Z,0.82
2022-09-28T17:06:22.193Z,1.30
2022-09-28T17:08:48.943Z,1.23
2022-09-28T17:11:22.791Z,1.58
2022-09-28T17:13:51.787Z,1.80
2022-09-28T17:16:37.129Z,1.60
2022-09-28T17:19:19.951Z,1.42
2022-09-28T17:21:48.753Z,1.52
2022-09-28T17:24:15.485Z,2.20
2022-09-28T17:26:44.308Z,1.80
2022-09-28T17:29:14.465Z,2.30
2022-09-28T17:31:45.872Z,1.45
2022-09-28T17:34:16.005Z,1.95
2022-09-28T17:36:43.824Z,1.50
2022-09-28T17:39:15.606Z,1.40
2022-09-28T17:41:42.459Z,1.30
2022-09-28T17:44:09.391Z,1.40
2022-09-28T17:46:45.836Z,1.67
2022-09-28T17:49:12.884Z,1.50
2022-09-28T17:51:39.682Z,1.70
2022-09-28T17:54:07.975Z,2.10
2022-09-28T17:56:35.575Z,2.03
2022-09-28T17:59:05.057Z,2.03
2022-09-28T18:01:37.073Z,2.45
2022-09-28T18:04:05.266Z,1.73
2022-09-28T18:06:33.648Z,1.67
2022-09-28T18:09:02.686Z,1.52
2022-09-28T18:11:30.102Z,1.80
2022-09-28T18:13:56.934Z,2.10
2022-09-28T18:16:23.841Z,1.48
2022-09-28T18:18:50.629Z,1.92
2022-09-28T18:21:17.411Z,1.92
2022-09-28T18:23:44.215Z,2.58
2022-09-28T18:26:12.542Z,2.50
2022-09-28T18:28:39.902Z,2.53
2022-09-28T18:31:08.458Z,2.50
2022-09-28T18:33:35.432Z,2.65
2022-09-28T18:36:02.698Z,2.70
2022-09-28T18:38:29.575Z,3.17
2022-09-28T18:40:56.460Z,2.70
2022-09-28T18:43:23.787Z,2.33
2022-09-28T18:45:50.463Z,2.33
2022-09-28T18:48:17.198Z,2.15
2022-09-28T18:50:43.936Z,2.33
2022-09-28T18:53:13.782Z,2.30
2022-09-28T18:55:42.517Z,2.22
2022-09-28T18:58:11.211Z,2.13
2022-09-28T19:00:39.384Z,2.13
2022-09-28T19:03:07.074Z,2.20
2022-09-28T19:05:35.045Z,2.35
2022-09-28T19:08:02.337Z,2.40
2022-09-28T19:10:29.248Z,2.15
2022-09-28T19:12:55.993Z,2.30
2022-09-28T19:15:22.830Z,2.05
2022-09-28T19:17:50.154Z,2.08
2022-09-28T19:20:17.083Z,2.03
2022-09-28T19:22:44.370Z,2.55
2022-09-28T19:25:13.291Z,3.45
2022-09-28T19:27:40.301Z,2.15
2022-09-28T19:30:07.839Z,2.20
2022-09-28T19:32:34.603Z,1.73
2022-09-28T19:35:03.439Z,2.28
2022-09-28T19:37:31.511Z,2.38
2022-09-28T19:39:58.243Z,2.00
2022-09-28T19:42:24.923Z,1.98
2022-09-28T19:44:51.973Z,2.10
2022-09-28T19:47:21.618Z,2.45
2022-09-28T19:49:49.111Z,1.80
2022-09-28T19:52:16.776Z,2.20
2022-09-28T19:54:56.409Z,1.80
2022-09-28T19:57:28.003Z,1.88
2022-09-28T20:00:00.922Z,2.03
2022-09-28T20:02:32.532Z,1.92
2022-09-28T20:04:59.339Z,1.75
2022-09-28T20:07:26.111Z,1.83
2022-09-28T20:09:52.860Z,1.50
2022-09-28T20:12:19.936Z,1.65
2022-09-28T20:14:46.910Z,1.60
2022-09-28T20:17:13.702Z,1.60
2022-09-28T20:19:40.514Z,1.73
2022-09-28T20:22:07.240Z,1.63
2022-09-28T20:24:33.973Z,2.17
2022-09-28T20:27:01.508Z,1.70
2022-09-28T20:29:28.991Z,1.80
2022-09-28T20:31:56.700Z,1.80
2022-09-28T20:34:23.468Z,1.42
2022-09-28T20:36:50.186Z,1.77
2022-09-28T20:39:17.162Z,1.70
2022-09-28T20:41:46.000Z,1.60
2022-09-28T20:44:13.083Z,1.83
2022-09-28T20:46:39.893Z,1.80
2022-09-28T20:49:07.660Z,2.22
2022-09-28T20:51:34.501Z,2.42
2022-09-28T20:54:01.400Z,2.80
2022-09-28T20:56:30.644Z,1.92
2022-09-28T20:58:57.610Z,2.42
2022-09-28T21:01:26.914Z,2.30
2022-09-28T21:03:56.436Z,2.60
2022-09-28T21:06:25.623Z,2.30
2022-09-28T21:08:52.720Z,2.20
2022-09-28T21:11:21.701Z,2.30
2022-09-28T21:13:52.008Z,2.47
2022-09-28T21:16:19.036Z,2.13
2022-09-28T21:18:45.740Z,2.70
2022-09-28T21:21:14.654Z,2.90
2022-09-28T21:23:44.764Z,2.55
2022-09-28T21:26:24.841Z,2.28
2022-09-28T21:28:53.468Z,3.08
2022-09-28T21:31:24.916Z,3.03
2022-09-28T21:33:55.420Z,2.58
2022-09-28T21:36:22.168Z,3.95
2022-09-28T21:38:49.302Z,3.13
2022-09-28T21:41:16.306Z,2.67
2022-09-28T21:43:43.051Z,3.08
2022-09-28T21:46:10.508Z,2.58
2022-09-28T21:48:37.473Z,2.72
2022-09-28T21:51:07.137Z,3.10
2022-09-28T21:53:36.156Z,2.95
2022-09-28T21:56:05.228Z,2.92
2022-09-28T21:58:33.515Z,2.85
2022-09-28T22:01:07.141Z,2.15
2022-09-28T22:03:36.104Z,2.70
2022-09-28T22:06:04.220Z,2.72
2022-09-28T22:08:31.490Z,2.60
2022-09-28T22:11:03.702Z,2.95
2022-09-28T22:13:35.298Z,2.73
2022-09-28T22:16:02.679Z,2.80
2022-09-28T22:18:31.254Z,2.83
2022-09-28T22:21:03.923Z,2.58
2022-09-28T22:23:30.643Z,2.63
2022-09-28T22:25:59.489Z,2.75
2022-09-28T22:28:26.683Z,2.75
2022-09-28T22:30:53.575Z,2.83
2022-09-28T22:33:20.311Z,2.50
2022-09-28T22:35:49.125Z,2.63
2022-09-28T22:38:16.007Z,3.20
2022-09-28T22:40:57.643Z,2.80
2022-09-28T22:43:27.270Z,2.85
2022-09-28T22:46:04.575Z,2.83
2022-09-28T22:48:33.057Z,2.88
2022-09-28T22:50:59.926Z,2.40
2022-09-28T22:53:26.767Z,2.90
2022-09-28T22:55:53.539Z,2.60
2022-09-28T22:58:20.808Z,2.92
2022-09-28T23:00:48.324Z,2.72
2022-09-28T23:03:15.821Z,2.95
2022-09-28T23:05:52.319Z,3.30
2022-09-28T23:08:19.087Z,2.95
2022-09-28T23:10:45.782Z,2.90
2022-09-28T23:13:12.685Z,3.28
2022-09-28T23:15:39.476Z,3.00
2022-09-28T23:18:06.443Z,3.20
2022-09-28T23:20:33.184Z,2.72
2022-09-28T23:22:59.871Z,2.83
2022-09-28T23:25:28.756Z,2.50
2022-09-28T23:27:55.497Z,2.55
2022-09-28T23:30:24.605Z,2.75
2022-09-28T23:32:54.204Z,2.63
2022-09-28T23:35:20.951Z,2.65
2022-09-28T23:37:51.642Z,2.67
2022-09-28T23:40:18.830Z,2.83
2022-09-28T23:42:45.580Z,2.92
2022-09-28T23:45:12.455Z,2.75
2022-09-28T23:47:39.213Z,2.67
2022-09-28T23:50:06.501Z,3.35
2022-09-28T23:52:33.559Z,2.80
2022-09-28T23:55:00.310Z,3.03
2022-09-28T23:57:27.285Z,2.72
2022-09-28T23:59:54.031Z,2.50
